Home > Products > Valid Products > TAF

000
FTPQ31 PGUM 262324
TAFGUM
TAF
PGUM 262324Z 2700/2806 10011KT P6SM VCSH SCT017 SCT040
      TEMPO 2700/2702 5SM -SHRA SCT015 BKN030=



000
FTPQ31 PGUM 262324
TAFGUM
TAF
PGUM 262324Z 2700/2806 10011KT P6SM VCSH SCT017 SCT040
      TEMPO 2700/2702 5SM -SHRA SCT015 BKN030=



000
FTPQ31 PGUM 262324
TAFGUM
TAF
PGUM 262324Z 2700/2806 10011KT P6SM VCSH SCT017 SCT040
      TEMPO 2700/2702 5SM -SHRA SCT015 BKN030=



000
FTPQ31 PGUM 262324
TAFGUM
TAF
PGUM 262324Z 2700/2806 10011KT P6SM VCSH SCT017 SCT040
      TEMPO 2700/2702 5SM -SHRA SCT015 BKN030=



000
FTPQ31 PGUM 261725
TAFGUM
TAF
PGUM 261725Z 2618/2724 10009KT P6SM VCSH FEW017 SCT040=



000
FTPQ31 PGUM 261725
TAFGUM
TAF
PGUM 261725Z 2618/2724 10009KT P6SM VCSH FEW017 SCT040=



000
FTPQ31 PGUM 261128
TAFGUM
TAF
PGUM 261128Z 2612/2718 10009KT P6SM VCSH FEW015 SCT025=



000
FTPQ31 PGUM 261128
TAFGUM
TAF
PGUM 261128Z 2612/2718 10009KT P6SM VCSH FEW015 SCT025=



000
FTPQ31 PGUM 260631
TAFGUM
TAF
PGUM 260631Z 2606/2712 10010G18KT P6SM VCSH FEW020 SCT050
     FM260900 09010KT P6SM VCSH FEW020 SCT050=



000
FTPQ31 PGUM 260631
TAFGUM
TAF
PGUM 260631Z 2606/2712 10010G18KT P6SM VCSH FEW020 SCT050
     FM260900 09010KT P6SM VCSH FEW020 SCT050=



000
FTPQ31 PGUM 260631
TAFGUM
TAF
PGUM 260631Z 2606/2712 10010G18KT P6SM VCSH FEW020 SCT050
     FM260900 09010KT P6SM VCSH FEW020 SCT050=



000
FTPQ31 PGUM 260631
TAFGUM
TAF
PGUM 260631Z 2606/2712 10010G18KT P6SM VCSH FEW020 SCT050
     FM260900 09010KT P6SM VCSH FEW020 SCT050=



000
FTPQ31 PGUM 252320
TAFGUM
TAF
PGUM 252320Z 2600/2706 10010G18KT P6SM VCSH FEW020 SCT050
     FM260900 09010KT P6SM VCSH FEW020 SCT050=



000
FTPQ31 PGUM 252320
TAFGUM
TAF
PGUM 252320Z 2600/2706 10010G18KT P6SM VCSH FEW020 SCT050
     FM260900 09010KT P6SM VCSH FEW020 SCT050=



000
FTPQ31 PGUM 252320
TAFGUM
TAF
PGUM 252320Z 2600/2706 10010G18KT P6SM VCSH FEW020 SCT050
     FM260900 09010KT P6SM VCSH FEW020 SCT050=



000
FTPQ31 PGUM 252320
TAFGUM
TAF
PGUM 252320Z 2600/2706 10010G18KT P6SM VCSH FEW020 SCT050
     FM260900 09010KT P6SM VCSH FEW020 SCT050=



000
FTPQ31 PGUM 251815 AAA
TAFGUM
TAF AMD
PGUM 251815Z 2518/2624 12009KT P6SM VCSH FEW018 SCT040 SCT120
      TEMPO 2518/2522 -SHRA SCT014 BKN030
     FM260100 10012G22KT P6SM VCSH FEW020 SCT050
     FM260900 09010KT P6SM VCSH FEW020 SCT050=



000
FTPQ31 PGUM 251815 AAA
TAFGUM
TAF AMD
PGUM 251815Z 2518/2624 12009KT P6SM VCSH FEW018 SCT040 SCT120
      TEMPO 2518/2522 -SHRA SCT014 BKN030
     FM260100 10012G22KT P6SM VCSH FEW020 SCT050
     FM260900 09010KT P6SM VCSH FEW020 SCT050=



000
FTPQ31 PGUM 251720
TAFGUM
TAF
PGUM 251720Z 2518/2624 12009KT P6SM VCSH FEW018 SCT040 SCT120
     FM260100 10012G22KT P6SM VCSH FEW020 SCT050
     FM260900 09010KT P6SM VCSH FEW020 SCT050=



000
FTPQ31 PGUM 251720
TAFGUM
TAF
PGUM 251720Z 2518/2624 12009KT P6SM VCSH FEW018 SCT040 SCT120
     FM260100 10012G22KT P6SM VCSH FEW020 SCT050
     FM260900 09010KT P6SM VCSH FEW020 SCT050=



000
FTPQ31 PGUM 251720
TAFGUM
TAF
PGUM 251720Z 2518/2624 12009KT P6SM VCSH FEW018 SCT040 SCT120
     FM260100 10012G22KT P6SM VCSH FEW020 SCT050
     FM260900 09010KT P6SM VCSH FEW020 SCT050=



000
FTPQ31 PGUM 251530 AAA
TAFGUM
TAF AMD
PGUM 251530Z 2516/2618 10009KT P6SM VCSH FEW020 SCT050 SCT140
      TEMPO 2516/2518 -SHRA SCT016 BKN030
     FM260100 09014KT P6SM VCSH SCT022 SCT140=



000
FTPQ31 PGUM 251530 AAA
TAFGUM
TAF AMD
PGUM 251530Z 2516/2618 10009KT P6SM VCSH FEW020 SCT050 SCT140
      TEMPO 2516/2518 -SHRA SCT016 BKN030
     FM260100 09014KT P6SM VCSH SCT022 SCT140=



000
FTPQ31 PGUM 251530 AAA
TAFGUM
TAF AMD
PGUM 251530Z 2516/2618 10009KT P6SM VCSH FEW020 SCT050 SCT140
      TEMPO 2516/2518 -SHRA SCT016 BKN030
     FM260100 09014KT P6SM VCSH SCT022 SCT140=



000
FTPQ31 PGUM 251530 AAA
TAFGUM
TAF AMD
PGUM 251530Z 2516/2618 10009KT P6SM VCSH FEW020 SCT050 SCT140
      TEMPO 2516/2518 -SHRA SCT016 BKN030
     FM260100 09014KT P6SM VCSH SCT022 SCT140=



000
FTPQ31 PGUM 251123
TAFGUM
TAF
PGUM 251123Z 2512/2618 10009KT P6SM VCSH FEW020 SCT050 SCT140
     FM260100 09014KT P6SM VCSH SCT022 SCT140=



000
FTPQ31 PGUM 251123
TAFGUM
TAF
PGUM 251123Z 2512/2618 10009KT P6SM VCSH FEW020 SCT050 SCT140
     FM260100 09014KT P6SM VCSH SCT022 SCT140=



000
FTPQ31 PGUM 251123
TAFGUM
TAF
PGUM 251123Z 2512/2618 10009KT P6SM VCSH FEW020 SCT050 SCT140
     FM260100 09014KT P6SM VCSH SCT022 SCT140=



000
FTPQ31 PGUM 251123
TAFGUM
TAF
PGUM 251123Z 2512/2618 10009KT P6SM VCSH FEW020 SCT050 SCT140
     FM260100 09014KT P6SM VCSH SCT022 SCT140=



000
FTPQ31 PGUM 250533
TAFGUM
TAF
PGUM 250533Z 2506/2612 10010G17KT P6SM VCSH FEW020 SCT050 SCT140
     FM250900 09010KT P6SM VCSH FEW020 SCT050 SCT140=



000
FTPQ31 PGUM 250533
TAFGUM
TAF
PGUM 250533Z 2506/2612 10010G17KT P6SM VCSH FEW020 SCT050 SCT140
     FM250900 09010KT P6SM VCSH FEW020 SCT050 SCT140=



000
FTPQ31 PGUM 250533
TAFGUM
TAF
PGUM 250533Z 2506/2612 10010G17KT P6SM VCSH FEW020 SCT050 SCT140
     FM250900 09010KT P6SM VCSH FEW020 SCT050 SCT140=



000
FTPQ31 PGUM 250209 AAB
TAFGUM
TAF AMD
PGUM 250209Z 2502/2606 10010G17KT P6SM VCSH FEW020 SCT050 SCT140
      TEMPO 2502/2506 -SHRA BKN016 BKN030
     FM250900 09010KT P6SM VCSH FEW020 SCT050 SCT140=



000
FTPQ31 PGUM 250209 AAB
TAFGUM
TAF AMD
PGUM 250209Z 2502/2606 10010G17KT P6SM VCSH FEW020 SCT050 SCT140
      TEMPO 2502/2506 -SHRA BKN016 BKN030
     FM250900 09010KT P6SM VCSH FEW020 SCT050 SCT140=



000
FTPQ31 PGUM 242320
TAFGUM
TAF
PGUM 242320Z 2500/2606 07012G20KT P6SM VCSH FEW020 SCT050 SCT140
      TEMPO 2500/2504 -SHRA SCT016 BKN030
     FM250900 09010KT P6SM VCSH FEW020 SCT050 SCT140=



000
FTPQ31 PGUM 242320
TAFGUM
TAF
PGUM 242320Z 2500/2606 07012G20KT P6SM VCSH FEW020 SCT050 SCT140
      TEMPO 2500/2504 -SHRA SCT016 BKN030
     FM250900 09010KT P6SM VCSH FEW020 SCT050 SCT140=



000
FTPQ31 PGUM 241725
TAFGUM
TAF
PGUM 241725Z 2418/2524 05011KT P6SM VCSH FEW020 SCT050 SCT140
      TEMPO 2418/2422 -SHRA SCT016 BKN030
     FM250100 07012G22KT P6SM VCSH FEW020 SCT050 SCT140
     FM250900 09010KT P6SM VCSH FEW020 SCT050 SCT140=



000
FTPQ31 PGUM 241725
TAFGUM
TAF
PGUM 241725Z 2418/2524 05011KT P6SM VCSH FEW020 SCT050 SCT140
      TEMPO 2418/2422 -SHRA SCT016 BKN030
     FM250100 07012G22KT P6SM VCSH FEW020 SCT050 SCT140
     FM250900 09010KT P6SM VCSH FEW020 SCT050 SCT140=



000
FTPQ31 PGUM 241725
TAFGUM
TAF
PGUM 241725Z 2418/2524 05011KT P6SM VCSH FEW020 SCT050 SCT140
      TEMPO 2418/2422 -SHRA SCT016 BKN030
     FM250100 07012G22KT P6SM VCSH FEW020 SCT050 SCT140
     FM250900 09010KT P6SM VCSH FEW020 SCT050 SCT140=



000
FTPQ31 PGUM 241134
TAFGUM
TAF
PGUM 241134Z 2412/2518 07010KT P6SM VCSH SCT020
     FM250100 07015G25KT P6SM VCSH SCT022 SCT050 SCT120
     FM250900 10011KT P6SM VCSH SCT020 SCT120=



000
FTPQ31 PGUM 241134
TAFGUM
TAF
PGUM 241134Z 2412/2518 07010KT P6SM VCSH SCT020
     FM250100 07015G25KT P6SM VCSH SCT022 SCT050 SCT120
     FM250900 10011KT P6SM VCSH SCT020 SCT120=



000
FTPQ31 PGUM 241134
TAFGUM
TAF
PGUM 241134Z 2412/2518 07010KT P6SM VCSH SCT020
     FM250100 07015G25KT P6SM VCSH SCT022 SCT050 SCT120
     FM250900 10011KT P6SM VCSH SCT020 SCT120=



000
FTPQ31 PGUM 241134
TAFGUM
TAF
PGUM 241134Z 2412/2518 07010KT P6SM VCSH SCT020
     FM250100 07015G25KT P6SM VCSH SCT022 SCT050 SCT120
     FM250900 10011KT P6SM VCSH SCT020 SCT120=



000
FTPQ31 PGUM 240529
TAFGUM
TAF
PGUM 240529Z 2406/2512 07015G22KT P6SM VCSH SCT022 SCT050
     FM240800 07010KT P6SM VCSH SCT020 SCT120
     FM250100 07015G25KT P6SM VCSH SCT022 SCT050
     FM250900 10011KT P6SM VCSH SCT020 SCT120=



000
FTPQ31 PGUM 240529
TAFGUM
TAF
PGUM 240529Z 2406/2512 07015G22KT P6SM VCSH SCT022 SCT050
     FM240800 07010KT P6SM VCSH SCT020 SCT120
     FM250100 07015G25KT P6SM VCSH SCT022 SCT050
     FM250900 10011KT P6SM VCSH SCT020 SCT120=



    US Dept of Commerce
    National Oceanic and Atmospheric Administration
    National Weather Service
    1325 East West Highway
    Silver Spring, MD 20910
    Page Author: NWS Internet Services Team
Disclaimer
Information Quality
Credits
Glossary
Privacy Policy
Freedom of Information Act (FOIA)
About Us
Career Opportunities